Flight Track Log - Related Links

Times and Time Zones

All times are in EDT time to prevent confusion due to time zone crossing. See the GPD20 flight status page for this flight to view local times or setup timezone preferences in your user account.

Time Position Orientation Groundspeed Altitude Reporting Facility
EDT Latitude Longitude Course Direction KTS MPH feet Rate Location/Type
Mon 12:03:39 PM 41.4333 -70.4936 259° West 173 199 4,700  Level Boston Center
Mon 12:04:00 PM 41.3544 -70.8873 259° West  Level Estimated
Mon 12:04:33 PM 41.4772 -70.5033 351° North 175 201 5,200  Level Boston Center
Mon 12:05:00 PM 41.3478 -70.9329 259° West  Level Estimated
Mon 12:05:42 PM 41.4844 -70.5586 280° West 151 174 5,600  Level Boston Center
Mon 12:06:00 PM 41.3412 -70.9784 259° West  Level Estimated
Mon 12:06:43 PM 41.4792 -70.6142 263° West 136 157 6,300  Level Boston Center
Mon 12:07:00 PM 41.3346 -71.0239 259° West  Level Estimated
Mon 12:07:43 PM 41.4797 -70.6611 271° West 139 160 6,900  Level Boston Center
Mon 12:08:00 PM 41.3280 -71.0694 259° West  Level Estimated
Mon 12:08:45 PM 41.5014 -70.7078 302° West 151 174 7,500  Level Boston Center
Mon 12:09:00 PM 41.3214 -71.1149 259° West  Level Estimated
Mon 12:09:45 PM 41.5208 -70.7517 301° West 143 165 7,900  Level Boston Center
Mon 12:10:45 PM 41.5342 -70.8094 287° West 163 188 8,000 52 Climbing Boston Center
Mon 12:11:40 PM 41.5514 -70.8589 295° West 166 191 8,000  Level Boston Center
Mon 12:12:40 PM 41.5711 -70.9222 293° West 170 196 8,000  Level Boston Center
Mon 12:13:41 PM 41.5886 -70.9803 292° West 164 189 8,000  Level Boston Center
Mon 12:14:41 PM 41.6039 -71.0381 289° West 165 190 8,000  Level Boston Center
Mon 12:15:45 PM 41.6150 -71.0961 284° West 162 186 8,000  Level Boston Center
Mon 12:16:45 PM 41.6178 -71.1544 274° West 159 183 8,000  Level Boston Center
Mon 12:17:40 PM 41.6225 -71.2069 277° West 159 183 8,000  Level Boston Center
Mon 12:18:40 PM 41.6253 -71.2625 274° West 152 175 8,000  Level Boston Center
Mon 12:19:40 PM 41.6175 -71.3267 261° West 157 181 8,000  Level Boston Center
Mon 12:20:41 PM 41.6119 -71.3822 262° West 155 178 8,000  Level Boston Center
Mon 12:21:44 PM 41.6039 -71.4406 260° West 154 177 8,000  Level Boston Center
Mon 12:22:45 PM 41.5961 -71.4936 259° West 153 176 8,000  Level Boston Center
Mon 12:23:45 PM 41.5967 -71.5547 271° West 156 180 8,000  Level Boston Center
Mon 12:24:52 PM 41.5950 -71.6183 268° West 152 175 8,000  Level Boston Center
Mon 12:25:46 PM 41.5953 -71.6711 270° West 152 175 8,000  Level Boston Center
Mon 12:26:48 PM 41.6061 -71.7267 285° West 152 175 8,000  Level Boston Center
Mon 12:27:49 PM 41.6108 -71.7847 276° West 159 183 8,000  Level Boston Center
Mon 12:28:46 PM 41.6153 -71.8403 276° West 156 180 8,000  Level Boston Center
Mon 12:29:59 PM 41.6175 -71.9097 272° West 154 177 8,000  Level Boston Center
Mon 12:31:05 PM 41.6200 -71.9736 273° West 154 177 8,000  Level Boston Center
Mon 12:32:06 PM 41.6203 -72.0292 270° West 151 174 8,000  Level Boston Center
Mon 12:33:03 PM 41.6183 -72.0847 267° West 155 178 8,000  Level Boston Center
Mon 12:34:04 PM 41.6183 -72.1403 270° West 157 181 8,000  Level Boston Center
Mon 12:35:04 PM 41.6208 -72.2014 273° West 156 180 8,000  Level Boston Center
Mon 12:36:04 PM 41.6103 -72.2542 255° West 150 173 8,000  Level Boston Center
Mon 12:37:05 PM 41.5917 -72.3069 245° Southwest 155 178 8,000  Level Boston Center
Mon 12:38:11 PM 41.5750 -72.3681 250° West 158 182 8,000 -47 Level Boston Center
Mon 12:39:12 PM 41.5667 -72.4233 259° West 151 174 7,900 -384 Descending Boston Center
Mon 12:40:16 PM 41.5564 -72.4844 257° West 172 198 7,200 -689 Descending Boston Center
Mon 12:41:14 PM 41.5458 -72.5483 258° West 177 204 6,500 -458 Descending Boston Center
Mon 12:42:14 PM 41.5897 -72.5733 337° Northwest 178 205 6,300 -194 Descending Boston Center
Mon 12:43:18 PM 41.5917 -72.6289 273° West 157 181 6,100 -138 Descending Boston Center
Mon 12:44:24 PM 41.5728 -72.6897 247° West 158 182 6,000 -48 Descending Boston Center
Mon 12:45:24 PM 41.5581 -72.7425 250° West 153 176 6,000  Level Boston Center
Mon 12:47:51 PM 41.4833 -72.8167 217° Southwest 170 196 6,000  Level New York TRACON
Mon 12:48:51 PM 41.4333 -72.8167 180° South 165 190 6,000  Level New York TRACON
Mon 12:49:51 PM 41.4000 -72.8333 201° Southwest 161 185 6,000  Level New York TRACON
Mon 12:50:51 PM 41.3500 -72.8500 194° South 162 186 6,000  Level New York TRACON
Mon 12:51:51 PM 41.3333 -72.8833 236° Southwest 161 185 6,000  Level New York TRACON
Mon 12:52:51 PM 41.3000 -72.9333 228° Southwest 156 180 6,000  Level New York TRACON
Mon 12:53:51 PM 41.2667 -72.9833 228° Southwest 157 181 6,000  Level New York TRACON
Mon 12:54:51 PM 41.2500 -73.0333 246° West 158 182 6,000  Level New York TRACON
Mon 12:55:51 PM 41.2333 -73.0833 246° West 156 180 6,000 50 Level New York TRACON
Mon 12:56:51 PM 41.2667 -73.1333 312° West 166 191 6,100  Climbing New York TRACON
Mon 12:57:51 PM 41.2833 -73.1833 294° West 168 193 6,000  Descending New York TRACON
Mon 12:58:51 PM 41.3167 -73.2333 312° West 170 196 6,100 50 Climbing New York TRACON
Mon 12:59:51 PM 41.3000 -73.2833 246° West 166 191 6,100 -50 Level New York TRACON
Mon 01:00:51 PM 41.3000 -73.2500 90° East 196 226 6,000 -50 Descending New York TRACON
Mon 01:01:51 PM 41.3000 -73.2833 270° West 188 216 6,000  Level New York TRACON
Mon 01:02:51 PM 41.2833 -73.2333 114° Southeast 173 199 6,000  Level New York TRACON
Mon 01:03:51 PM 41.2500 -73.2000 143° Southeast 166 191 6,000  Level New York TRACON
Mon 01:04:51 PM 41.2167 -73.1500 132° Southeast 170 196 6,000  Level New York TRACON
Mon 01:05:51 PM 41.1833 -73.1167 143° Southeast 174 200 6,000  Level New York TRACON
Mon 01:06:51 PM 41.1833 -73.0667 90° East 198 228 6,000  Level New York TRACON
Mon 01:07:51 PM 41.2000 -73.1333 288° West 157 181 6,000 100 Level New York TRACON
Mon 01:08:51 PM 41.1667 -73.1500 201° Southwest 161 185 6,200 50 Climbing New York TRACON
Mon 01:09:51 PM 41.1833 -73.2167 288° West 171 197 6,100 -50 Descending New York TRACON
Mon 01:10:51 PM 41.2167 -73.2500 323° Northwest 165 190 6,100 -50 Level New York TRACON
Mon 01:11:51 PM 41.2500 -73.2833 323° Northwest 171 197 6,000 -50 Descending New York TRACON
Mon 01:12:51 PM 41.2667 -73.3500 288° West 159 183 6,000 50 Level New York TRACON
Mon 01:13:51 PM 41.2667 -73.4000 270° West 159 183 6,100 50 Climbing New York TRACON
Mon 01:14:51 PM 41.2667 -73.4667 270° West 160 184 6,100 -50 Level New York TRACON
Mon 01:15:51 PM 41.2833 -73.5167 294° West 171 197 6,000 -50 Descending New York TRACON
Mon 01:16:51 PM 41.2833 -73.5833 270° West 168 193 6,000  Level New York TRACON
Mon 01:17:51 PM 41.2833 -73.6333 270° West 158 182 6,000  Level New York TRACON
Mon 01:18:51 PM 41.2667 -73.7000 252° West 160 184 6,000 50 Level New York TRACON
Mon 01:19:51 PM 41.2667 -73.7667 270° West 162 186 6,100  Climbing New York TRACON
Mon 01:20:51 PM 41.2667 -73.8167 270° West 165 190 6,000 -50 Descending New York TRACON
Mon 01:21:51 PM 41.2667 -73.8833 270° West 162 186 6,000 -300 Level New York TRACON
Mon 01:22:51 PM 41.2500 -73.9333 246° West 181 208 5,400 -600 Descending New York TRACON
Mon 01:23:51 PM 41.2000 -73.9333 180° South 167 192 4,800 -750 Descending New York TRACON
Mon 01:24:51 PM 41.1667 -73.9167 159° South 168 193 3,900 -750 Descending New York TRACON
Mon 01:25:51 PM 41.1500 -73.8833 124° Southeast 180 207 3,300 -600 Descending New York TRACON
Mon 01:26:51 PM 41.1333 -73.9167 236° Southwest 153 176 2,700 -550 Descending New York TRACON
Mon 01:27:51 PM 41.1000 -73.9167 180° South 145 167 2,200 -450 Descending New York TRACON
Mon 01:28:51 PM 41.0667 -73.9167 180° South 141 162 1,800 -450 Descending New York TRACON
Mon 01:29:51 PM 41.0167 -73.9000 166° South 143 165 1,300 -200 Descending New York TRACON
Mon 01:30:51 PM 40.9833 -73.9167 201° Southwest 157 181 1,400 50 Climbing New York TRACON
Mon 01:31:51 PM 40.9500 -73.9333 201° Southwest 148 170 1,400 -150 Level New York TRACON
Mon 01:32:51 PM 40.9167 -73.9667 217° Southwest 124 143 1,100 -150 Descending New York TRACON
Mon 01:33:51 PM 40.9000 -74.0000 237° Southwest 128 147 1,100 -250 Level New York TRACON
Mon 01:34:51 PM 40.8667 -74.0333 217° Southwest 136 157 600 -500 Descending New York TRACON

Login

Don't have an account? Register now (free) for customized features, flight alerts, and more!